• Join FlightAware (Why Join?)
  • Login
  • US Flag 
05:45AM EDT


 

Airport Tracker/Info


-or-


 

Live Flight TrackerFlight Track Log ✈ EJA396 ✈ 28-Sep-2013 ✈ KJFK - KHLG

Flight Track Log - Related Links

Times and Time Zones

All times are in EDT time to prevent confusion due to time zone crossing. See the EJA396 flight status page for this flight to view local times or setup timezone preferences in your user account.

Time Position Orientation Groundspeed Altitude Reporting Facility
EDT Latitude Longitude Course Direction KTS MPH feet Rate Location/Type
05:04PM 40.6500 -73.7333 75° East 212 244 4,700  Level New York TRACON
05:05PM 40.6667 -73.6500 75° East 230 265 9,900 3,300 Climbing New York TRACON
05:06PM 40.7333 -73.5833 37° Northeast 316 364 11,000 2,040 Climbing New York TRACON
05:07PM 40.8167 -73.5667 North 332 382 13,800 2,820 Climbing New York TRACON
05:08PM 40.8833 -73.6667 311° West 359 413 17,000 960 Climbing New York TRACON
05:10PM 41.0556 -73.8256 325° Northwest 361 415 17,000  Level New York Center
05:11PM 41.0706 -73.9583 279° West 349 402 17,000  Level New York Center
05:12PM 41.0869 -74.1186 278° West 381 438 17,000  Level New York Center
05:13PM 41.0978 -74.2486 276° West 397 457 17,000  Level New York Center
05:14PM 41.1119 -74.4061 277° West 397 457 17,000  Level New York Center
05:15PM 41.1225 -74.5361 276° West 397 457 17,000  Level New York Center
05:16PM 41.1381 -74.6969 277° West 397 457 17,000  Level New York Center
05:17PM 41.1544 -74.8244 280° West 397 457 17,000  Level New York Center
05:18PM 41.1767 -74.9692 282° West 397 457 17,000  Level New York Center
05:19PM 41.1964 -75.1139 280° West 397 457 17,000  Level New York Center
05:20PM 41.2175 -75.2725 280° West 392 451 17,000  Level New York Center
05:21PM 41.2328 -75.4169 278° West 397 457 17,000  Level New York Center
05:22PM 41.2228 -75.5625 265° West 397 457 17,000  Level New York Center
05:23PM 41.2131 -75.6969 265° West 404 465 17,000  Level New York Center
05:24PM 41.2028 -75.8422 265° West 404 465 17,000  Level New York Center
05:25PM 41.1917 -76.0042 265° West 404 465 17,000  Level New York Center
05:26PM 41.1808 -76.1494 264° West 404 465 17,000  Level New York Center
05:27PM 41.1700 -76.2975 264° West 404 465 17,000  Level New York Center
05:28PM 41.1594 -76.4317 264° West 404 465 17,000  Level New York Center
05:29PM 41.1483 -76.5767 264° West 404 465 17,000  Level New York Center
05:30PM 41.1358 -76.7436 264° West 409 471 17,000  Level New York Center
05:31PM 41.1242 -76.8886 264° West 409 471 17,000  Level New York Center
05:32PM 41.1125 -77.0308 264° West 402 463 17,000  Level New York Center
05:33PM 41.1003 -77.1811 264° West 402 463 17,000  Level New York Center
05:34PM 41.0883 -77.3233 264° West 402 463 17,000  Level New York Center
05:35PM 41.0783 -77.4683 265° West 402 463 17,000  Level New York Center
05:37PM 41.0617 -77.6731 264° West 402 463 17,000  Level Cleveland Center
05:38PM 41.0461 -77.8447 263° West 397 457 17,100  Climbing Cleveland Center
05:39PM 41.0317 -77.9875 262° West 395 455 17,100  Level Cleveland Center
05:40PM 41.0197 -78.1314 264° West 395 455 17,100  Level Cleveland Center
05:41PM 41.0075 -78.2644 263° West 397 457 17,100  Level Cleveland Center
05:42PM 40.9936 -78.4347 264° West 393 452 17,100  Level Cleveland Center
05:43PM 40.9825 -78.5808 264° West 399 459 17,100  Level Cleveland Center
05:44PM 40.9686 -78.7250 263° West 397 457 17,100  Level Cleveland Center
05:45PM 40.9511 -78.8625 260° West 398 458 17,100  Level Cleveland Center
05:46PM 40.9367 -79.0044 262° West 380 437 17,100  Level Cleveland Center
05:47PM 40.9228 -79.1469 263° West 391 450 17,100 -60 Level Cleveland Center
05:48PM 40.9083 -79.2908 262° West 394 453 17,000 -1,200 Descending Cleveland Center
05:49PM 40.8914 -79.4594 262° West 389 448 14,700 -1,980 Descending Cleveland Center
05:50PM 40.8658 -79.5925 256° West 371 427 13,000 -1,560 Descending Cleveland Center
05:51PM 40.8000 -79.6964 230° Southwest 369 425 11,500 -1,500 Descending Cleveland Center
05:52PM 40.7347 -79.7978 230° Southwest 362 417 10,000 -780 Descending Cleveland Center
05:53PM 40.6706 -79.8964 229° Southwest 357 411 10,000  Level Cleveland Center
05:54PM 40.5978 -80.0056 229° Southwest 358 412 10,000  Level Cleveland Center
05:55PM 40.5350 -80.1017 229° Southwest 351 404 10,000  Level Cleveland Center
05:56PM 40.4708 -80.1983 229° Southwest 350 403 10,000 -600 Level Cleveland Center
05:57PM 40.4172 -80.2811 230° Southwest 302 348 8,800 -1,500 Descending Cleveland Center
05:58PM 40.3653 -80.3594 229° Southwest 283 326 7,000 -1,800 Descending Cleveland Center
06:00PM 40.3092 -80.4447 229° Southwest 260 299 5,200 -1,620 Descending Cleveland Center
06:01PM 40.2642 -80.5128 229° Southwest 251 289 3,700 -1,080 Descending Cleveland Center
06:02PM 40.2214 -80.5769 229° Southwest 243 280 3,000 -840 Descending Cleveland Center
06:03PM 40.2136 -80.6317 259° West 191 220 2,000 -780 Descending Cleveland Center
06:04PM 40.1811 -80.6378 188° South 145 167 1,400 -600 Descending Cleveland Center